sensor_id;sensor_type;location;lat;lon;timestamp;pressure;altitude;pressure_sealevel;temperature;humidity
5883;BME280;2967;51.488;6.618;2023-04-30T00:04:07;102006.19;;;11.13;100.00
5883;BME280;2967;51.488;6.618;2023-04-30T00:09:09;102033.41;;;11.33;100.00
5883;BME280;2967;51.488;6.618;2023-04-30T00:14:12;102029.25;;;11.28;100.00
5883;BME280;2967;51.488;6.618;2023-04-30T00:19:16;102017.94;;;11.24;100.00
5883;BME280;2967;51.488;6.618;2023-04-30T00:24:19;102024.69;;;11.31;100.00
5883;BME280;2967;51.488;6.618;2023-04-30T00:29:21;102036.38;;;11.27;100.00
5883;BME280;2967;51.488;6.618;2023-04-30T00:34:26;102032.19;;;11.22;100.00
5883;BME280;2967;51.488;6.618;2023-04-30T00:39:28;102030.78;;;11.15;100.00
5883;BME280;2967;51.488;6.618;2023-04-30T00:44:31;102035.94;;;11.18;100.00
5883;BME280;2967;51.488;6.618;2023-04-30T00:49:35;102039.94;;;11.08;100.00
5883;BME280;2967;51.488;6.618;2023-04-30T00:54:38;102034.69;;;11.06;100.00
5883;BME280;2967;51.488;6.618;2023-04-30T00:59:40;102043.09;;;10.97;100.00
5883;BME280;2967;51.488;6.618;2023-04-30T01:04:45;102028.44;;;10.90;100.00
5883;BME280;2967;51.488;6.618;2023-04-30T01:09:48;102032.28;;;10.83;100.00
5883;BME280;2967;51.488;6.618;2023-04-30T01:15:05;102030.56;;;10.82;100.00
5883;BME280;2967;51.488;6.618;2023-04-30T01:20:11;102005.44;;;10.72;100.00
5883;BME280;2967;51.488;6.618;2023-04-30T01:25:30;102025.63;;;10.75;100.00
5883;BME280;2967;51.488;6.618;2023-04-30T01:30:40;102015.88;;;10.57;100.00
5883;BME280;2967;51.488;6.618;2023-04-30T01:36:06;102018.53;;;9.97;100.00
5883;BME280;2967;51.488;6.618;2023-04-30T01:41:17;102015.59;;;10.25;100.00
5883;BME280;2967;51.488;6.618;2023-04-30T01:46:27;102030.66;;;10.03;100.00
5883;BME280;2967;51.488;6.618;2023-04-30T01:51:37;102023.22;;;9.91;100.00
5883;BME280;2967;51.488;6.618;2023-04-30T01:56:44;102031.19;;;10.31;100.00
5883;BME280;2967;51.488;6.618;2023-04-30T02:01:50;102036.34;;;10.34;100.00
5883;BME280;2967;51.488;6.618;2023-04-30T02:06:53;102037.00;;;10.39;100.00
5883;BME280;2967;51.488;6.618;2023-04-30T02:11:56;102034.63;;;10.33;100.00
5883;BME280;2967;51.488;6.618;2023-04-30T02:17:01;102038.06;;;10.35;100.00
5883;BME280;2967;51.488;6.618;2023-04-30T02:22:04;102035.94;;;10.23;100.00
5883;BME280;2967;51.488;6.618;2023-04-30T02:27:07;102016.63;;;10.01;100.00
5883;BME280;2967;51.488;6.618;2023-04-30T02:32:11;102037.75;;;10.02;100.00
5883;BME280;2967;51.488;6.618;2023-04-30T02:37:14;102034.19;;;10.03;100.00
5883;BME280;2967;51.488;6.618;2023-04-30T02:42:16;102039.00;;;10.14;100.00
5883;BME280;2967;51.488;6.618;2023-04-30T02:47:20;102038.84;;;10.17;100.00
5883;BME280;2967;51.488;6.618;2023-04-30T02:52:24;102033.72;;;10.14;100.00
5883;BME280;2967;51.488;6.618;2023-04-30T02:57:27;102027.44;;;10.16;100.00
5883;BME280;2967;51.488;6.618;2023-04-30T03:02:30;102033.91;;;10.09;100.00
5883;BME280;2967;51.488;6.618;2023-04-30T03:07:33;102035.94;;;10.03;100.00
5883;BME280;2967;51.488;6.618;2023-04-30T03:12:36;102024.03;;;9.93;100.00
5883;BME280;2967;51.488;6.618;2023-04-30T03:17:40;102030.28;;;9.90;100.00
5883;BME280;2967;51.488;6.618;2023-04-30T03:22:46;102023.19;;;9.92;100.00
5883;BME280;2967;51.488;6.618;2023-04-30T03:27:49;102018.47;;;9.79;100.00
5883;BME280;2967;51.488;6.618;2023-04-30T03:32:53;102022.53;;;9.66;100.00
5883;BME280;2967;51.488;6.618;2023-04-30T03:37:55;102010.38;;;9.62;100.00
5883;BME280;2967;51.488;6.618;2023-04-30T03:42:58;102019.47;;;9.55;100.00
5883;BME280;2967;51.488;6.618;2023-04-30T03:48:02;102039.13;;;9.26;100.00
5883;BME280;2967;51.488;6.618;2023-04-30T03:53:05;102038.66;;;9.60;100.00
5883;BME280;2967;51.488;6.618;2023-04-30T03:58:08;102030.44;;;9.66;100.00
5883;BME280;2967;51.488;6.618;2023-04-30T04:03:12;102038.28;;;9.69;100.00
5883;BME280;2967;51.488;6.618;2023-04-30T04:08:16;102035.03;;;9.62;100.00
5883;BME280;2967;51.488;6.618;2023-04-30T04:13:18;102038.88;;;9.75;100.00
5883;BME280;2967;51.488;6.618;2023-04-30T04:18:22;102044.22;;;9.74;100.00
5883;BME280;2967;51.488;6.618;2023-04-30T04:23:26;102048.50;;;9.76;100.00
5883;BME280;2967;51.488;6.618;2023-04-30T04:28:28;102037.22;;;9.73;100.00
5883;BME280;2967;51.488;6.618;2023-04-30T04:33:32;102050.78;;;9.64;100.00
5883;BME280;2967;51.488;6.618;2023-04-30T04:38:37;102049.06;;;9.63;100.00
5883;BME280;2967;51.488;6.618;2023-04-30T04:43:40;102048.66;;;9.52;100.00
5883;BME280;2967;51.488;6.618;2023-04-30T04:48:44;102040.97;;;9.46;100.00
5883;BME280;2967;51.488;6.618;2023-04-30T04:53:47;102047.41;;;9.60;100.00
5883;BME280;2967;51.488;6.618;2023-04-30T04:58:50;102046.06;;;9.72;100.00
5883;BME280;2967;51.488;6.618;2023-04-30T05:03:54;102050.91;;;9.82;100.00
5883;BME280;2967;51.488;6.618;2023-04-30T05:08:57;102064.00;;;9.85;100.00
5883;BME280;2967;51.488;6.618;2023-04-30T05:14:00;102055.09;;;9.88;100.00
5883;BME280;2967;51.488;6.618;2023-04-30T05:19:04;102062.38;;;10.03;100.00
5883;BME280;2967;51.488;6.618;2023-04-30T05:24:07;102048.06;;;10.08;100.00
5883;BME280;2967;51.488;6.618;2023-04-30T05:29:09;102069.53;;;10.21;100.00
5883;BME280;2967;51.488;6.618;2023-04-30T05:34:14;102065.78;;;10.26;100.00
5883;BME280;2967;51.488;6.618;2023-04-30T05:39:16;102076.06;;;10.32;100.00
5883;BME280;2967;51.488;6.618;2023-04-30T05:44:19;102073.97;;;10.40;100.00
5883;BME280;2967;51.488;6.618;2023-04-30T05:49:23;102075.66;;;10.41;100.00
5883;BME280;2967;51.488;6.618;2023-04-30T05:54:26;102076.69;;;10.58;100.00
5883;BME280;2967;51.488;6.618;2023-04-30T05:59:28;102072.59;;;10.70;100.00
5883;BME280;2967;51.488;6.618;2023-04-30T06:04:32;102079.97;;;10.82;100.00
5883;BME280;2967;51.488;6.618;2023-04-30T06:09:35;102070.94;;;10.87;100.00
5883;BME280;2967;51.488;6.618;2023-04-30T06:14:37;102066.22;;;10.94;100.00
5883;BME280;2967;51.488;6.618;2023-04-30T06:19:45;102079.81;;;11.05;100.00
5883;BME280;2967;51.488;6.618;2023-04-30T06:24:48;102072.50;;;11.10;100.00
5883;BME280;2967;51.488;6.618;2023-04-30T06:29:50;102069.16;;;11.25;100.00
5883;BME280;2967;51.488;6.618;2023-04-30T06:34:54;102082.69;;;11.37;100.00
5883;BME280;2967;51.488;6.618;2023-04-30T06:39:57;102078.50;;;11.50;100.00
5883;BME280;2967;51.488;6.618;2023-04-30T06:45:00;102082.25;;;11.65;100.00
5883;BME280;2967;51.488;6.618;2023-04-30T06:50:05;102078.34;;;11.72;100.00
5883;BME280;2967;51.488;6.618;2023-04-30T06:55:08;102071.13;;;11.92;100.00
5883;BME280;2967;51.488;6.618;2023-04-30T07:00:11;102067.94;;;12.03;100.00
5883;BME280;2967;51.488;6.618;2023-04-30T07:05:17;102068.09;;;12.17;100.00
5883;BME280;2967;51.488;6.618;2023-04-30T07:10:20;102065.97;;;12.23;100.00
5883;BME280;2967;51.488;6.618;2023-04-30T07:15:22;102071.34;;;12.39;100.00
5883;BME280;2967;51.488;6.618;2023-04-30T07:20:26;102074.25;;;12.51;100.00
5883;BME280;2967;51.488;6.618;2023-04-30T07:25:29;102067.50;;;12.61;100.00
5883;BME280;2967;51.488;6.618;2023-04-30T07:30:31;102071.41;;;12.71;100.00
5883;BME280;2967;51.488;6.618;2023-04-30T07:35:35;102076.28;;;12.79;100.00
5883;BME280;2967;51.488;6.618;2023-04-30T07:40:38;102077.56;;;12.87;100.00
5883;BME280;2967;51.488;6.618;2023-04-30T07:45:41;102071.94;;;12.93;100.00
5883;BME280;2967;51.488;6.618;2023-04-30T07:50:47;102078.75;;;12.99;100.00
5883;BME280;2967;51.488;6.618;2023-04-30T07:55:53;102078.34;;;13.06;100.00
5883;BME280;2967;51.488;6.618;2023-04-30T08:00:56;102083.25;;;13.14;100.00
5883;BME280;2967;51.488;6.618;2023-04-30T08:06:00;102072.97;;;13.23;100.00
5883;BME280;2967;51.488;6.618;2023-04-30T08:11:03;102077.16;;;13.27;100.00
5883;BME280;2967;51.488;6.618;2023-04-30T08:16:06;102079.16;;;13.39;100.00
5883;BME280;2967;51.488;6.618;2023-04-30T08:21:10;102074.16;;;13.48;100.00
5883;BME280;2967;51.488;6.618;2023-04-30T08:26:14;102076.56;;;13.53;100.00
5883;BME280;2967;51.488;6.618;2023-04-30T08:31:17;102081.38;;;13.62;100.00
5883;BME280;2967;51.488;6.618;2023-04-30T08:36:21;102076.56;;;13.68;100.00
5883;BME280;2967;51.488;6.618;2023-04-30T08:41:25;102072.69;;;13.74;100.00
5883;BME280;2967;51.488;6.618;2023-04-30T08:46:28;102076.97;;;13.76;100.00
5883;BME280;2967;51.488;6.618;2023-04-30T08:51:34;102077.56;;;13.81;100.00
5883;BME280;2967;51.488;6.618;2023-04-30T08:56:37;102074.09;;;13.95;100.00
5883;BME280;2967;51.488;6.618;2023-04-30T09:01:40;102078.88;;;14.04;100.00
5883;BME280;2967;51.488;6.618;2023-04-30T09:06:44;102069.41;;;14.14;100.00
5883;BME280;2967;51.488;6.618;2023-04-30T09:11:47;102063.59;;;14.23;100.00
5883;BME280;2967;51.488;6.618;2023-04-30T09:16:50;102067.22;;;14.36;100.00
5883;BME280;2967;51.488;6.618;2023-04-30T09:21:54;102067.41;;;14.47;100.00
5883;BME280;2967;51.488;6.618;2023-04-30T09:26:57;102064.47;;;14.51;100.00
5883;BME280;2967;51.488;6.618;2023-04-30T09:32:17;102047.47;;;14.54;100.00
5883;BME280;2967;51.488;6.618;2023-04-30T09:37:21;102031.88;;;14.62;100.00
5883;BME280;2967;51.488;6.618;2023-04-30T09:42:36;102042.66;;;14.74;100.00
5883;BME280;2967;51.488;6.618;2023-04-30T09:47:38;102038.91;;;14.91;100.00
5883;BME280;2967;51.488;6.618;2023-04-30T09:52:47;102029.69;;;14.96;100.00
5883;BME280;2967;51.488;6.618;2023-04-30T09:57:53;102026.72;;;15.01;100.00
5883;BME280;2967;51.488;6.618;2023-04-30T10:02:56;102022.97;;;15.17;100.00
5883;BME280;2967;51.488;6.618;2023-04-30T10:08:02;102025.91;;;15.27;100.00
5883;BME280;2967;51.488;6.618;2023-04-30T10:13:09;102014.78;;;15.34;100.00
5883;BME280;2967;51.488;6.618;2023-04-30T10:18:17;102022.66;;;15.50;100.00
5883;BME280;2967;51.488;6.618;2023-04-30T10:23:22;102008.00;;;15.43;100.00
5883;BME280;2967;51.488;6.618;2023-04-30T10:28:25;102013.31;;;15.43;100.00
5883;BME280;2967;51.488;6.618;2023-04-30T10:33:34;102010.81;;;15.54;100.00
5883;BME280;2967;51.488;6.618;2023-04-30T10:38:41;101998.66;;;15.62;100.00
5883;BME280;2967;51.488;6.618;2023-04-30T10:43:46;101992.50;;;15.62;100.00
5883;BME280;2967;51.488;6.618;2023-04-30T10:48:52;101983.78;;;15.85;100.00
5883;BME280;2967;51.488;6.618;2023-04-30T10:53:56;101982.53;;;16.02;100.00
5883;BME280;2967;51.488;6.618;2023-04-30T10:58:59;101981.38;;;16.19;100.00
5883;BME280;2967;51.488;6.618;2023-04-30T11:04:05;101967.38;;;16.15;100.00
5883;BME280;2967;51.488;6.618;2023-04-30T11:09:09;101967.72;;;16.23;99.95
5883;BME280;2967;51.488;6.618;2023-04-30T11:14:12;101929.16;;;16.27;99.47
5883;BME280;2967;51.488;6.618;2023-04-30T11:19:22;101946.56;;;16.70;97.57
5883;BME280;2967;51.488;6.618;2023-04-30T11:24:50;101948.91;;;16.98;96.64
5883;BME280;2967;51.488;6.618;2023-04-30T11:29:54;101931.78;;;17.13;94.92
5883;BME280;2967;51.488;6.618;2023-04-30T11:34:58;101943.19;;;17.51;94.33
5883;BME280;2967;51.488;6.618;2023-04-30T11:40:04;101936.97;;;17.85;93.92
5883;BME280;2967;51.488;6.618;2023-04-30T11:45:09;101927.97;;;17.97;91.82
5883;BME280;2967;51.488;6.618;2023-04-30T11:50:14;101939.31;;;18.12;91.32
5883;BME280;2967;51.488;6.618;2023-04-30T11:55:19;101926.69;;;18.25;89.03
5883;BME280;2967;51.488;6.618;2023-04-30T12:00:25;101923.69;;;18.40;86.75
5883;BME280;2967;51.488;6.618;2023-04-30T12:05:28;101919.06;;;18.42;86.80
5883;BME280;2967;51.488;6.618;2023-04-30T12:10:32;101914.91;;;18.38;87.33
5883;BME280;2967;51.488;6.618;2023-04-30T12:15:35;101913.69;;;18.42;86.52
5883;BME280;2967;51.488;6.618;2023-04-30T12:20:41;101898.72;;;18.40;87.62
5883;BME280;2967;51.488;6.618;2023-04-30T12:25:46;101899.81;;;18.70;87.47
5883;BME280;2967;51.488;6.618;2023-04-30T12:30:48;101895.34;;;19.02;84.57
5883;BME280;2967;51.488;6.618;2023-04-30T12:35:51;101899.25;;;19.40;84.03
5883;BME280;2967;51.488;6.618;2023-04-30T12:40:56;101898.22;;;19.52;83.65
5883;BME280;2967;51.488;6.618;2023-04-30T12:45:58;101901.03;;;19.51;84.35
5883;BME280;2967;51.488;6.618;2023-04-30T12:51:02;101887.09;;;19.57;81.61
5883;BME280;2967;51.488;6.618;2023-04-30T12:56:15;101879.84;;;19.68;82.30
5883;BME280;2967;51.488;6.618;2023-04-30T13:01:45;101888.22;;;19.75;81.37
5883;BME280;2967;51.488;6.618;2023-04-30T13:06:50;101883.34;;;19.89;80.70
5883;BME280;2967;51.488;6.618;2023-04-30T13:11:54;101861.22;;;20.27;79.62
5883;BME280;2967;51.488;6.618;2023-04-30T13:16:57;101874.66;;;20.57;79.04
5883;BME280;2967;51.488;6.618;2023-04-30T13:22:00;101864.50;;;20.70;72.00
5883;BME280;2967;51.488;6.618;2023-04-30T13:27:04;101859.66;;;21.13;76.25
5883;BME280;2967;51.488;6.618;2023-04-30T13:32:07;101854.13;;;21.24;68.30
5883;BME280;2967;51.488;6.618;2023-04-30T13:37:10;101847.44;;;21.47;69.53
5883;BME280;2967;51.488;6.618;2023-04-30T13:42:14;101845.59;;;21.38;71.60
5883;BME280;2967;51.488;6.618;2023-04-30T13:47:18;101842.81;;;21.11;75.17
5883;BME280;2967;51.488;6.618;2023-04-30T13:52:22;101837.28;;;21.41;86.36
5883;BME280;2967;51.488;6.618;2023-04-30T13:57:26;101823.22;;;21.28;77.44
5883;BME280;2967;51.488;6.618;2023-04-30T14:02:30;101823.78;;;21.50;80.86
5883;BME280;2967;51.488;6.618;2023-04-30T14:07:33;101830.03;;;21.70;80.07
5883;BME280;2967;51.488;6.618;2023-04-30T14:12:37;101821.25;;;21.20;86.62
5883;BME280;2967;51.488;6.618;2023-04-30T14:17:39;101818.63;;;20.71;89.71
5883;BME280;2967;51.488;6.618;2023-04-30T14:22:42;101808.50;;;20.94;84.01
5883;BME280;2967;51.488;6.618;2023-04-30T14:27:46;101804.25;;;21.29;86.88
5883;BME280;2967;51.488;6.618;2023-04-30T14:32:49;101803.97;;;21.42;88.67
5883;BME280;2967;51.488;6.618;2023-04-30T14:37:51;101792.63;;;21.29;76.08
5883;BME280;2967;51.488;6.618;2023-04-30T14:42:55;101783.84;;;21.36;80.83
5883;BME280;2967;51.488;6.618;2023-04-30T14:47:58;101786.16;;;21.03;82.23
5883;BME280;2967;51.488;6.618;2023-04-30T14:53:05;101770.78;;;20.56;84.33
5883;BME280;2967;51.488;6.618;2023-04-30T14:58:09;101781.19;;;20.21;87.16
5883;BME280;2967;51.488;6.618;2023-04-30T15:03:12;101783.28;;;19.87;83.24
5883;BME280;2967;51.488;6.618;2023-04-30T15:08:15;101772.84;;;19.64;90.55
5883;BME280;2967;51.488;6.618;2023-04-30T15:13:19;101755.91;;;19.43;86.55
5883;BME280;2967;51.488;6.618;2023-04-30T15:18:22;101761.34;;;19.32;87.37
5883;BME280;2967;51.488;6.618;2023-04-30T15:23:25;101758.22;;;19.16;92.89
5883;BME280;2967;51.488;6.618;2023-04-30T15:28:29;101747.81;;;19.02;89.67
5883;BME280;2967;51.488;6.618;2023-04-30T15:33:33;101742.25;;;18.94;90.22
5883;BME280;2967;51.488;6.618;2023-04-30T15:38:40;101731.09;;;18.78;84.38
5883;BME280;2967;51.488;6.618;2023-04-30T15:43:44;101720.59;;;18.66;91.12
5883;BME280;2967;51.488;6.618;2023-04-30T15:48:46;101716.59;;;18.60;93.90
5883;BME280;2967;51.488;6.618;2023-04-30T16:00:14;101704.75;;;18.20;89.21
5883;BME280;2967;51.488;6.618;2023-04-30T16:05:17;101702.56;;;18.14;92.36
5883;BME280;2967;51.488;6.618;2023-04-30T16:10:20;101702.22;;;18.08;92.80
5883;BME280;2967;51.488;6.618;2023-04-30T16:15:24;101700.03;;;18.02;92.64
5883;BME280;2967;51.488;6.618;2023-04-30T16:20:29;101687.63;;;17.90;93.08
5883;BME280;2967;51.488;6.618;2023-04-30T16:25:32;101683.75;;;17.83;92.95
5883;BME280;2967;51.488;6.618;2023-04-30T16:30:36;101682.56;;;17.76;90.03
5883;BME280;2967;51.488;6.618;2023-04-30T16:35:38;101687.41;;;17.71;87.56
5883;BME280;2967;51.488;6.618;2023-04-30T16:40:41;101680.97;;;17.62;92.72
5883;BME280;2967;51.488;6.618;2023-04-30T16:45:45;101682.16;;;17.58;97.83
5883;BME280;2967;51.488;6.618;2023-04-30T16:50:48;101683.75;;;17.50;94.13
5883;BME280;2967;51.488;6.618;2023-04-30T16:55:50;101677.09;;;17.44;93.85
5883;BME280;2967;51.488;6.618;2023-04-30T17:00:54;101678.31;;;17.40;93.83
5883;BME280;2967;51.488;6.618;2023-04-30T17:05:57;101683.38;;;17.32;95.55
5883;BME280;2967;51.488;6.618;2023-04-30T17:11:00;101680.19;;;17.27;94.75
5883;BME280;2967;51.488;6.618;2023-04-30T17:16:04;101676.66;;;17.16;94.13
5883;BME280;2967;51.488;6.618;2023-04-30T17:21:07;101660.13;;;17.11;95.20
5883;BME280;2967;51.488;6.618;2023-04-30T17:26:09;101655.03;;;17.08;96.01
5883;BME280;2967;51.488;6.618;2023-04-30T17:31:13;101651.84;;;17.03;96.65
5883;BME280;2967;51.488;6.618;2023-04-30T17:36:16;101649.03;;;16.93;98.21
5883;BME280;2967;51.488;6.618;2023-04-30T17:41:19;101636.38;;;16.84;95.24
5883;BME280;2967;51.488;6.618;2023-04-30T17:46:23;101638.69;;;16.78;100.00
5883;BME280;2967;51.488;6.618;2023-04-30T17:51:26;101652.41;;;16.73;95.66
5883;BME280;2967;51.488;6.618;2023-04-30T17:56:31;101601.41;;;16.42;95.37
5883;BME280;2967;51.488;6.618;2023-04-30T18:01:35;101648.25;;;16.58;99.23
5883;BME280;2967;51.488;6.618;2023-04-30T18:06:38;101644.56;;;16.48;99.13
5883;BME280;2967;51.488;6.618;2023-04-30T18:11:42;101643.31;;;16.41;100.00
5883;BME280;2967;51.488;6.618;2023-04-30T18:16:47;101641.06;;;16.35;98.89
5883;BME280;2967;51.488;6.618;2023-04-30T18:27:35;101619.56;;;16.02;94.83
5883;BME280;2967;51.488;6.618;2023-04-30T18:32:39;101631.81;;;16.05;98.71
5883;BME280;2967;51.488;6.618;2023-04-30T18:37:45;101637.94;;;15.94;97.48
5883;BME280;2967;51.488;6.618;2023-04-30T18:42:47;101625.75;;;15.80;98.90
5883;BME280;2967;51.488;6.618;2023-04-30T18:47:51;101634.19;;;15.74;95.47
5883;BME280;2967;51.488;6.618;2023-04-30T18:52:55;101632.91;;;15.67;97.76
5883;BME280;2967;51.488;6.618;2023-04-30T18:57:58;101625.06;;;15.53;100.00
5883;BME280;2967;51.488;6.618;2023-04-30T19:03:02;101622.09;;;15.45;98.01
5883;BME280;2967;51.488;6.618;2023-04-30T19:08:05;101644.59;;;15.41;96.85
5883;BME280;2967;51.488;6.618;2023-04-30T19:13:08;101634.59;;;15.32;97.21
5883;BME280;2967;51.488;6.618;2023-04-30T19:18:13;101638.28;;;15.29;95.94
5883;BME280;2967;51.488;6.618;2023-04-30T19:23:16;101642.25;;;15.24;100.00
5883;BME280;2967;51.488;6.618;2023-04-30T19:28:19;101644.59;;;15.16;96.36
5883;BME280;2967;51.488;6.618;2023-04-30T19:33:23;101652.81;;;15.13;99.58
5883;BME280;2967;51.488;6.618;2023-04-30T19:38:26;101650.78;;;15.04;100.00
5883;BME280;2967;51.488;6.618;2023-04-30T19:43:29;101659.19;;;14.98;94.47
5883;BME280;2967;51.488;6.618;2023-04-30T19:48:34;101663.03;;;14.94;99.91
5883;BME280;2967;51.488;6.618;2023-04-30T19:53:37;101653.75;;;14.87;99.71
5883;BME280;2967;51.488;6.618;2023-04-30T19:58:40;101655.56;;;14.86;100.00
5883;BME280;2967;51.488;6.618;2023-04-30T20:03:46;101643.53;;;14.81;99.41
5883;BME280;2967;51.488;6.618;2023-04-30T20:08:49;101642.97;;;14.76;98.65
5883;BME280;2967;51.488;6.618;2023-04-30T20:13:53;101654.06;;;14.70;97.53
5883;BME280;2967;51.488;6.618;2023-04-30T20:18:57;101653.63;;;14.63;97.78
5883;BME280;2967;51.488;6.618;2023-04-30T20:24:00;101644.13;;;14.59;94.56
5883;BME280;2967;51.488;6.618;2023-04-30T20:29:04;101645.69;;;14.49;97.24
5883;BME280;2967;51.488;6.618;2023-04-30T20:34:08;101646.41;;;14.26;93.28
5883;BME280;2967;51.488;6.618;2023-04-30T20:39:11;101639.75;;;14.19;100.00
5883;BME280;2967;51.488;6.618;2023-04-30T20:44:14;101630.81;;;14.20;100.00
5883;BME280;2967;51.488;6.618;2023-04-30T20:49:18;101624.84;;;14.17;100.00
5883;BME280;2967;51.488;6.618;2023-04-30T20:54:20;101629.50;;;14.13;100.00
5883;BME280;2967;51.488;6.618;2023-04-30T20:59:24;101631.50;;;14.10;100.00
5883;BME280;2967;51.488;6.618;2023-04-30T21:04:27;101624.66;;;14.06;97.64
5883;BME280;2967;51.488;6.618;2023-04-30T21:09:30;101621.16;;;14.05;100.00
5883;BME280;2967;51.488;6.618;2023-04-30T21:14:35;101621.91;;;14.07;100.00
5883;BME280;2967;51.488;6.618;2023-04-30T21:19:39;101611.56;;;14.03;98.00
5883;BME280;2967;51.488;6.618;2023-04-30T21:24:42;101607.97;;;14.04;100.00
5883;BME280;2967;51.488;6.618;2023-04-30T21:29:45;101612.31;;;14.05;99.75
5883;BME280;2967;51.488;6.618;2023-04-30T21:34:49;101587.84;;;14.00;99.52
5883;BME280;2967;51.488;6.618;2023-04-30T21:39:53;101606.16;;;14.04;97.95
5883;BME280;2967;51.488;6.618;2023-04-30T21:44:57;101597.63;;;13.99;97.86
5883;BME280;2967;51.488;6.618;2023-04-30T21:50:01;101595.81;;;14.00;99.17
5883;BME280;2967;51.488;6.618;2023-04-30T21:55:05;101586.44;;;13.94;96.30
5883;BME280;2967;51.488;6.618;2023-04-30T22:00:08;101578.16;;;13.99;99.60
5883;BME280;2967;51.488;6.618;2023-04-30T22:05:22;101575.69;;;13.96;96.21
5883;BME280;2967;51.488;6.618;2023-04-30T22:10:25;101572.28;;;13.94;97.57
5883;BME280;2967;51.488;6.618;2023-04-30T22:15:28;101563.28;;;13.82;97.34
5883;BME280;2967;51.488;6.618;2023-04-30T22:20:50;101565.66;;;13.87;99.07
5883;BME280;2967;51.488;6.618;2023-04-30T22:25:53;101556.94;;;13.85;97.07
5883;BME280;2967;51.488;6.618;2023-04-30T22:30:56;101542.34;;;13.78;97.05
5883;BME280;2967;51.488;6.618;2023-04-30T22:36:02;101547.84;;;13.75;95.47
5883;BME280;2967;51.488;6.618;2023-04-30T22:41:05;101539.63;;;13.65;97.43
5883;BME280;2967;51.488;6.618;2023-04-30T22:46:08;101510.63;;;13.48;97.33
5883;BME280;2967;51.488;6.618;2023-04-30T22:51:13;101546.28;;;13.58;96.45
5883;BME280;2967;51.488;6.618;2023-04-30T22:56:15;101536.97;;;13.39;97.06
5883;BME280;2967;51.488;6.618;2023-04-30T23:01:18;101531.38;;;13.29;98.74
5883;BME280;2967;51.488;6.618;2023-04-30T23:06:23;101528.84;;;13.28;99.80
5883;BME280;2967;51.488;6.618;2023-04-30T23:11:26;101514.66;;;13.01;99.07
5883;BME280;2967;51.488;6.618;2023-04-30T23:16:29;101521.53;;;13.18;100.00
5883;BME280;2967;51.488;6.618;2023-04-30T23:21:33;101526.19;;;13.14;100.00
5883;BME280;2967;51.488;6.618;2023-04-30T23:26:36;101469.88;;;12.67;98.29
5883;BME280;2967;51.488;6.618;2023-04-30T23:31:39;101510.09;;;12.89;100.00
5883;BME280;2967;51.488;6.618;2023-04-30T23:36:43;101506.47;;;12.76;99.96
5883;BME280;2967;51.488;6.618;2023-04-30T23:41:45;101497.88;;;12.73;100.00
5883;BME280;2967;51.488;6.618;2023-04-30T23:46:48;101493.19;;;12.76;100.00
5883;BME280;2967;51.488;6.618;2023-04-30T23:51:52;101487.41;;;12.70;100.00
5883;BME280;2967;51.488;6.618;2023-04-30T23:56:55;101481.28;;;12.69;100.00
